createdAt,value
2018-03-25T08:47:52.574Z,1002.28
2018-03-25T08:48:50.588Z,1002.26
2018-03-25T08:50:56.733Z,1002.26
2018-03-25T08:51:58.758Z,1002.27
2018-03-25T08:52:57.591Z,1002.27
2018-03-25T08:54:00.505Z,1002.27
2018-03-25T08:54:56.965Z,1002.30
2018-03-25T08:56:00.886Z,1002.27
2018-03-25T08:56:56.384Z,1002.24
2018-03-25T09:00:31.022Z,1002.26
2018-03-25T09:01:31.183Z,1002.28
2018-03-25T09:03:30.984Z,1002.32
2018-03-25T09:07:50.171Z,1002.31
2018-03-25T09:09:29.014Z,1002.34
2018-03-25T09:10:28.737Z,1002.33
2018-03-25T09:12:34.692Z,1002.30
2018-03-25T09:16:33.399Z,1002.29
2018-03-25T09:18:31.624Z,1002.31
2018-03-25T09:19:31.587Z,1002.32
2018-03-25T09:21:29.674Z,1002.32
2018-03-25T09:22:26.587Z,1002.30
2018-03-25T09:24:34.770Z,1002.33
2018-03-25T09:25:34.593Z,1002.32
2018-03-25T09:26:35.461Z,1002.28
2018-03-25T09:28:36.400Z,1002.31
2018-03-25T09:29:35.141Z,1002.33
2018-03-25T09:30:35.512Z,1002.35
2018-03-25T09:31:34.249Z,1002.35
2018-03-25T09:32:34.235Z,1002.32
2018-03-25T09:33:34.771Z,1002.31
2018-03-25T09:34:34.771Z,1002.33
2018-03-25T09:35:35.114Z,1002.36
2018-03-25T09:36:34.895Z,1002.40
2018-03-25T09:37:35.529Z,1002.35
2018-03-25T09:38:34.897Z,1002.37
2018-03-25T09:39:34.272Z,1002.40
2018-03-25T09:40:33.183Z,1002.40
2018-03-25T09:41:34.766Z,1002.43
2018-03-25T09:42:37.747Z,1002.44
2018-03-25T09:43:35.133Z,1002.39
2018-03-25T09:47:21.220Z,1002.46
2018-03-25T09:48:18.871Z,1002.44
2018-03-25T09:49:18.577Z,1002.46
2018-03-25T09:50:18.546Z,1002.45
2018-03-25T09:51:18.698Z,1002.51
2018-03-25T09:52:18.563Z,1002.52
2018-03-25T09:53:18.703Z,1002.49
2018-03-25T09:54:18.576Z,1002.50
2018-03-25T09:55:18.620Z,1002.49
2018-03-25T09:56:18.567Z,1002.54
2018-03-25T09:57:17.551Z,1002.57
2018-03-25T09:58:17.438Z,1002.59
2018-03-25T09:59:18.457Z,1002.53
2018-03-25T10:00:20.522Z,1002.56
2018-03-25T10:01:16.782Z,1002.58
2018-03-25T10:02:16.793Z,1002.56
2018-03-25T10:03:18.066Z,1002.61
2018-03-25T10:04:19.370Z,1002.61
2018-03-25T10:05:19.846Z,1002.58
2018-03-25T10:06:18.910Z,1002.62
2018-03-25T10:07:20.799Z,1002.65
2018-03-25T10:08:18.686Z,1002.63
2018-03-25T10:09:16.524Z,1002.63
2018-03-25T10:10:16.085Z,1002.63
2018-03-25T10:11:16.056Z,1002.61
2018-03-25T10:12:16.035Z,1002.64
2018-03-25T10:13:16.001Z,1002.62
2018-03-25T10:14:16.051Z,1002.64
2018-03-25T10:15:15.963Z,1002.70
2018-03-25T10:16:15.922Z,1002.65
2018-03-25T10:17:15.891Z,1002.66
2018-03-25T10:18:15.981Z,1002.64
2018-03-25T10:19:15.844Z,1002.68
2018-03-25T10:20:15.834Z,1002.70
2018-03-25T10:21:15.868Z,1002.66
2018-03-25T10:22:15.777Z,1002.67
2018-03-25T10:23:15.733Z,1002.72
2018-03-25T10:24:15.706Z,1002.71
2018-03-25T10:25:15.675Z,1002.73
2018-03-25T10:26:15.745Z,1002.69
2018-03-25T10:27:15.621Z,1002.72
2018-03-25T10:28:15.591Z,1002.75
2018-03-25T10:29:15.557Z,1002.72
2018-03-25T10:30:15.686Z,1002.71
2018-03-25T10:31:15.561Z,1002.68
2018-03-25T10:32:15.479Z,1002.73
2018-03-25T10:33:15.539Z,1002.74
2018-03-25T10:34:15.431Z,1002.68
2018-03-25T10:35:15.404Z,1002.69
2018-03-25T10:36:15.385Z,1002.75
2018-03-25T10:37:15.346Z,1002.74
2018-03-25T10:38:15.321Z,1002.74
2018-03-25T10:39:15.295Z,1002.75
2018-03-25T10:40:15.269Z,1002.75
2018-03-25T10:41:15.424Z,1002.75
2018-03-25T10:42:15.388Z,1002.75
2018-03-25T10:43:15.257Z,1002.76
2018-03-25T10:44:15.302Z,1002.79
2018-03-25T10:45:15.139Z,1002.81
2018-03-25T10:46:15.109Z,1002.77
2018-03-25T10:47:15.163Z,1002.75
2018-03-25T10:48:15.054Z,1002.75
2018-03-25T10:49:15.024Z,1002.76
2018-03-25T10:50:15.037Z,1002.70
2018-03-25T10:51:15.081Z,1002.76
2018-03-25T10:52:14.944Z,1002.79
2018-03-25T10:53:14.923Z,1002.76
2018-03-25T10:54:14.885Z,1002.76
2018-03-25T10:55:14.855Z,1002.79
2018-03-25T10:56:14.836Z,1002.75
2018-03-25T10:57:14.809Z,1002.75
2018-03-25T10:58:14.783Z,1002.73
2018-03-25T10:59:14.797Z,1002.77
2018-03-25T11:00:14.761Z,1002.76
2018-03-25T11:01:14.755Z,1002.75
2018-03-25T11:02:14.688Z,1002.79
2018-03-25T11:03:14.677Z,1002.79
2018-03-25T11:04:15.202Z,1002.82
2018-03-25T11:05:14.604Z,1002.79
2018-03-25T11:06:14.654Z,1002.80
2018-03-25T11:07:14.559Z,1002.77
2018-03-25T11:08:14.514Z,1002.74
2018-03-25T11:09:14.483Z,1002.78
2018-03-25T11:10:14.465Z,1002.79
2018-03-25T11:11:14.435Z,1002.74
2018-03-25T11:12:14.411Z,1002.77
2018-03-25T11:13:14.380Z,1002.73
2018-03-25T11:14:14.361Z,1002.75
2018-03-25T11:15:14.516Z,1002.78
2018-03-25T11:16:14.513Z,1002.69
2018-03-25T11:17:14.284Z,1002.76
2018-03-25T11:18:14.345Z,1002.74
2018-03-25T11:19:14.319Z,1002.78
2018-03-25T11:20:14.245Z,1002.73
2018-03-25T11:21:14.318Z,1002.80
2018-03-25T11:22:14.304Z,1002.78
2018-03-25T11:23:14.271Z,1002.79
2018-03-25T11:24:14.094Z,1002.78
2018-03-25T11:25:14.313Z,1002.80
2018-03-25T11:26:14.128Z,1002.80
2018-03-25T11:27:14.152Z,1002.75
2018-03-25T11:28:14.013Z,1002.81
2018-03-25T11:29:13.970Z,1002.84
2018-03-25T11:30:13.948Z,1002.80
2018-03-25T11:31:13.955Z,1002.78
2018-03-25T11:32:13.896Z,1002.79
2018-03-25T11:33:13.871Z,1002.81
2018-03-25T11:34:13.959Z,1002.82
2018-03-25T11:35:13.818Z,1002.84
2018-03-25T11:36:14.179Z,1002.89
2018-03-25T11:37:13.879Z,1002.87
2018-03-25T11:38:13.862Z,1002.84
2018-03-25T11:39:13.818Z,1002.87
2018-03-25T11:40:13.781Z,1002.88
2018-03-25T11:41:13.777Z,1002.82
2018-03-25T11:42:13.844Z,1002.86
2018-03-25T11:43:13.672Z,1002.88
2018-03-25T11:44:13.819Z,1002.85
2018-03-25T11:45:13.732Z,1002.84
2018-03-25T11:46:13.827Z,1002.84
2018-03-25T11:47:13.637Z,1002.80
2018-03-25T11:48:13.797Z,1002.85
2018-03-25T11:49:13.656Z,1002.80
2018-03-25T11:50:13.558Z,1002.83
2018-03-25T11:51:13.430Z,1002.88
2018-03-25T11:52:13.494Z,1002.86
2018-03-25T11:53:13.575Z,1002.83
2018-03-25T11:54:13.461Z,1002.83
2018-03-25T11:55:13.487Z,1002.85
2018-03-25T11:56:13.400Z,1002.86
2018-03-25T11:57:13.389Z,1002.86
2018-03-25T11:58:13.369Z,1002.88
2018-03-25T11:59:14.225Z,1002.90
2018-03-25T12:00:13.339Z,1002.88
2018-03-25T12:01:13.369Z,1002.91
2018-03-25T12:02:13.199Z,1002.86
2018-03-25T12:03:13.170Z,1002.88
2018-03-25T12:04:13.152Z,1002.83
2018-03-25T12:05:13.159Z,1002.91
2018-03-25T12:06:13.108Z,1002.84
2018-03-25T12:07:13.136Z,1002.87
2018-03-25T12:08:13.111Z,1002.90
2018-03-25T12:09:13.038Z,1002.89
2018-03-25T12:10:13.040Z,1002.89
2018-03-25T12:11:13.011Z,1002.86
2018-03-25T12:12:13.012Z,1002.83
2018-03-25T12:13:12.953Z,1002.83
2018-03-25T12:14:13.155Z,1002.92
2018-03-25T12:15:12.909Z,1002.98
2018-03-25T12:16:12.986Z,1002.94
2018-03-25T12:17:12.869Z,1002.87
2018-03-25T12:18:12.848Z,1002.90
2018-03-25T12:19:12.832Z,1002.88
2018-03-25T12:20:12.799Z,1002.85
2018-03-25T12:21:12.824Z,1002.83
2018-03-25T12:22:12.760Z,1002.82
2018-03-25T12:23:12.864Z,1002.86
2018-03-25T12:24:12.763Z,1002.87
2018-03-25T12:25:12.686Z,1002.88
2018-03-25T12:26:12.673Z,1002.89
2018-03-25T12:27:12.653Z,1002.89
2018-03-25T12:28:12.624Z,1002.94
2018-03-25T12:29:12.620Z,1002.89
2018-03-25T12:30:12.588Z,1002.95
2018-03-25T12:31:12.560Z,1002.96
2018-03-25T12:32:12.533Z,1002.89
2018-03-25T12:33:12.550Z,1002.92
2018-03-25T12:34:12.533Z,1002.93
2018-03-25T12:35:12.470Z,1002.92
2018-03-25T12:36:12.442Z,1002.95
2018-03-25T12:37:12.414Z,1002.94
2018-03-25T12:38:12.391Z,1002.96
2018-03-25T12:39:12.371Z,1002.93
2018-03-25T12:40:12.355Z,1002.93
2018-03-25T12:41:12.326Z,1002.93
2018-03-25T12:42:13.376Z,1002.94
2018-03-25T12:43:12.281Z,1002.98
2018-03-25T12:44:12.332Z,1003.02
2018-03-25T12:45:12.235Z,1003.12
2018-03-25T12:46:12.243Z,1003.11
2018-03-25T12:47:12.189Z,1003.05
2018-03-25T12:48:12.315Z,1003.14
2018-03-25T12:49:12.138Z,1003.20
2018-03-25T12:50:12.118Z,1003.17
2018-03-25T12:51:12.090Z,1003.21
2018-03-25T12:52:12.077Z,1003.17
2018-03-25T12:53:12.061Z,1003.19
2018-03-25T12:54:12.093Z,1003.19
2018-03-25T12:55:12.687Z,1003.25
2018-03-25T12:56:11.989Z,1003.20
2018-03-25T12:57:11.971Z,1003.18
2018-03-25T12:58:11.948Z,1003.03
2018-03-25T12:59:11.918Z,1003.07
2018-03-25T13:00:11.895Z,1003.18
2018-03-25T13:01:11.947Z,1003.08
2018-03-25T13:02:11.855Z,1003.09
2018-03-25T13:03:11.842Z,1002.98
2018-03-25T13:04:11.825Z,1002.97
2018-03-25T13:05:11.857Z,1002.94
2018-03-25T13:06:11.782Z,1002.92
2018-03-25T13:07:11.765Z,1002.97
2018-03-25T13:08:11.742Z,1002.98
2018-03-25T13:09:11.728Z,1003.01
2018-03-25T13:10:11.869Z,1002.95
2018-03-25T13:11:11.733Z,1002.96
2018-03-25T13:12:11.668Z,1002.99
2018-03-25T13:13:11.647Z,1003.01
2018-03-25T13:14:11.708Z,1003.01
2018-03-25T13:15:11.600Z,1003.03
2018-03-25T13:16:11.592Z,1003.05
2018-03-25T13:17:11.555Z,1003.19
2018-03-25T13:18:11.538Z,1003.15
2018-03-25T13:19:11.519Z,1003.17
2018-03-25T13:20:11.533Z,1003.15
2018-03-25T13:21:11.550Z,1003.14
2018-03-25T13:22:11.462Z,1002.94
2018-03-25T13:23:11.465Z,1003.00
2018-03-25T13:24:11.518Z,1002.98
2018-03-25T13:25:11.480Z,1002.96
2018-03-25T13:26:11.383Z,1002.94
2018-03-25T13:27:11.368Z,1002.95
2018-03-25T13:28:11.374Z,1002.93
2018-03-25T13:29:11.528Z,1002.94
2018-03-25T13:30:11.383Z,1002.97
2018-03-25T13:31:11.302Z,1002.94
2018-03-25T13:32:11.598Z,1002.97
2018-03-25T13:33:11.266Z,1003.00
2018-03-25T13:34:11.244Z,1002.98
2018-03-25T13:35:11.199Z,1003.04
2018-03-25T13:36:11.190Z,1003.02
2018-03-25T13:37:11.160Z,1003.00
2018-03-25T13:38:11.147Z,1003.01
2018-03-25T13:39:11.175Z,1002.98
2018-03-25T13:40:11.101Z,1002.99
2018-03-25T13:41:11.525Z,1003.02
2018-03-25T13:42:11.067Z,1003.06
2018-03-25T13:43:11.127Z,1003.07
2018-03-25T13:44:11.091Z,1003.09
2018-03-25T13:45:11.047Z,1003.03
2018-03-25T13:46:10.970Z,1003.00
2018-03-25T13:47:10.956Z,1003.03
2018-03-25T13:48:10.937Z,1003.01
2018-03-25T13:49:10.910Z,1003.00
2018-03-25T13:50:10.886Z,1002.97
2018-03-25T13:51:10.859Z,1002.93
2018-03-25T13:52:10.835Z,1002.96
2018-03-25T13:53:10.820Z,1002.98
2018-03-25T13:54:10.802Z,1002.93
2018-03-25T13:55:10.782Z,1002.92
2018-03-25T13:56:10.833Z,1002.91
2018-03-25T13:57:10.901Z,1002.94
2018-03-25T13:58:10.854Z,1002.92
2018-03-25T13:59:10.815Z,1002.88
2018-03-25T14:00:10.778Z,1002.91
2018-03-25T14:01:10.744Z,1002.91
2018-03-25T14:02:10.624Z,1002.88
2018-03-25T14:03:10.607Z,1002.87
2018-03-25T14:04:10.596Z,1002.87
2018-03-25T14:05:10.560Z,1002.95
2018-03-25T14:06:10.537Z,1002.94
2018-03-25T14:07:10.507Z,1002.97
2018-03-25T14:08:10.488Z,1002.96
2018-03-25T14:09:10.469Z,1002.99
2018-03-25T14:10:10.676Z,1002.96
2018-03-25T14:11:10.450Z,1002.95
2018-03-25T14:12:10.387Z,1002.98
2018-03-25T14:13:10.364Z,1002.95
2018-03-25T14:14:10.359Z,1002.96
2018-03-25T14:15:10.323Z,1002.94
2018-03-25T14:16:10.306Z,1002.95
2018-03-25T14:17:10.379Z,1002.92
2018-03-25T14:18:10.252Z,1002.91
2018-03-25T14:19:10.232Z,1002.94
2018-03-25T14:20:10.204Z,1002.88
2018-03-25T14:21:10.182Z,1002.89
2018-03-25T14:22:10.156Z,1002.89
2018-03-25T14:23:10.184Z,1002.91
2018-03-25T14:24:10.212Z,1002.94
2018-03-25T14:25:10.087Z,1002.92
2018-03-25T14:26:10.059Z,1002.89
2018-03-25T14:27:10.035Z,1002.90
2018-03-25T14:28:10.011Z,1002.97
2018-03-25T14:29:10.050Z,1002.96
2018-03-25T14:30:09.962Z,1002.97
2018-03-25T14:31:09.945Z,1002.96
2018-03-25T14:32:09.932Z,1002.94
2018-03-25T14:33:10.030Z,1003.04
2018-03-25T14:34:09.872Z,1003.00
2018-03-25T14:35:09.851Z,1003.02
2018-03-25T14:36:09.823Z,1002.98
2018-03-25T14:37:09.884Z,1003.03
2018-03-25T14:38:09.784Z,1003.00
2018-03-25T14:39:09.750Z,1003.03
2018-03-25T14:40:09.779Z,1003.04
2018-03-25T14:41:09.701Z,1003.01
2018-03-25T14:42:09.723Z,1003.04
2018-03-25T14:43:09.689Z,1003.04
2018-03-25T14:44:09.650Z,1003.01
2018-03-25T14:45:09.643Z,1003.03
2018-03-25T14:46:09.577Z,1003.03
2018-03-25T14:47:09.553Z,1003.02
2018-03-25T14:48:09.529Z,1003.00
2018-03-25T14:49:09.498Z,1003.02
2018-03-25T14:50:09.484Z,1003.01
2018-03-25T14:51:09.462Z,1003.04
2018-03-25T14:52:09.439Z,1003.03
2018-03-25T14:53:09.420Z,1003.07
2018-03-25T14:54:09.383Z,1003.05
2018-03-25T14:55:09.359Z,1003.10
2018-03-25T14:56:09.338Z,1003.11
2018-03-25T14:57:09.336Z,1003.09
2018-03-25T14:58:09.280Z,1003.11
2018-03-25T14:59:09.254Z,1003.09
2018-03-25T15:00:09.245Z,1003.06
2018-03-25T15:01:09.205Z,1003.07
2018-03-25T15:02:09.186Z,1003.04
2018-03-25T15:03:09.170Z,1003.07
2018-03-25T15:04:09.208Z,1003.08
2018-03-25T15:05:09.116Z,1003.07
2018-03-25T15:06:09.091Z,1003.12
2018-03-25T15:07:09.063Z,1003.12
2018-03-25T15:08:09.041Z,1003.12
2018-03-25T15:09:09.016Z,1003.13
2018-03-25T15:10:08.994Z,1003.15
2018-03-25T15:11:08.959Z,1003.16
2018-03-25T15:12:08.934Z,1003.17
2018-03-25T15:13:08.960Z,1003.17
2018-03-25T15:14:08.892Z,1003.16
2018-03-25T15:15:08.872Z,1003.19
2018-03-25T15:16:08.903Z,1003.21
2018-03-25T15:17:08.820Z,1003.20
2018-03-25T15:18:08.789Z,1003.16
2018-03-25T15:19:08.767Z,1003.13
2018-03-25T15:20:08.745Z,1003.21
2018-03-25T15:21:08.713Z,1003.20
2018-03-25T15:22:08.680Z,1003.24
2018-03-25T15:23:08.659Z,1003.25
2018-03-25T15:24:08.634Z,1003.21
2018-03-25T15:25:08.620Z,1003.23
2018-03-25T15:26:08.582Z,1003.23
2018-03-25T15:27:08.558Z,1003.20
2018-03-25T15:28:08.537Z,1003.21
2018-03-25T15:29:08.510Z,1003.25
2018-03-25T15:30:08.487Z,1003.22
2018-03-25T15:31:08.462Z,1003.22
2018-03-25T15:32:08.441Z,1003.28
2018-03-25T15:33:08.408Z,1003.28
2018-03-25T15:34:08.394Z,1003.29
2018-03-25T15:35:08.360Z,1003.30
2018-03-25T15:36:08.332Z,1003.29
2018-03-25T15:37:08.337Z,1003.34
2018-03-25T15:38:08.332Z,1003.30
2018-03-25T15:39:08.251Z,1003.30
2018-03-25T15:40:08.238Z,1003.25
2018-03-25T15:41:08.203Z,1003.34
2018-03-25T15:42:08.175Z,1003.31
2018-03-25T15:43:08.151Z,1003.31
2018-03-25T15:44:08.127Z,1003.31
2018-03-25T15:45:08.101Z,1003.33
2018-03-25T15:46:08.089Z,1003.32
2018-03-25T15:47:08.054Z,1003.37
2018-03-25T15:48:08.025Z,1003.34
2018-03-25T15:49:08.046Z,1003.39
2018-03-25T15:50:08.033Z,1003.36
2018-03-25T15:51:07.949Z,1003.39
2018-03-25T15:52:07.970Z,1003.44
2018-03-25T15:53:07.896Z,1003.46
2018-03-25T15:54:07.872Z,1003.45
2018-03-25T15:55:07.838Z,1003.46
2018-03-25T15:56:07.842Z,1003.48
2018-03-25T15:57:07.796Z,1003.47
2018-03-25T15:58:07.763Z,1003.47
2018-03-25T15:59:07.735Z,1003.49
2018-03-25T16:00:07.713Z,1003.51
2018-03-25T16:01:07.689Z,1003.46
2018-03-25T16:02:07.669Z,1003.53
2018-03-25T16:03:07.641Z,1003.55
2018-03-25T16:04:07.607Z,1003.52
2018-03-25T16:05:07.582Z,1003.55
2018-03-25T16:06:07.551Z,1003.59
2018-03-25T16:07:07.525Z,1003.58
2018-03-25T16:08:07.503Z,1003.61
2018-03-25T16:09:07.473Z,1003.62
2018-03-25T16:10:07.509Z,1003.62
2018-03-25T16:11:07.892Z,1003.61
2018-03-25T16:12:07.843Z,1003.64
2018-03-25T16:13:07.369Z,1003.70
2018-03-25T16:14:07.350Z,1003.68
2018-03-25T16:15:07.323Z,1003.68
2018-03-25T16:16:07.296Z,1003.69
2018-03-25T16:17:07.338Z,1003.67
2018-03-25T16:18:07.244Z,1003.69
2018-03-25T16:19:07.214Z,1003.64
2018-03-25T16:20:07.198Z,1003.66
2018-03-25T16:21:08.105Z,1003.64
2018-03-25T16:22:07.142Z,1003.70
2018-03-25T16:23:07.124Z,1003.70
2018-03-25T16:24:07.077Z,1003.69
2018-03-25T16:25:07.051Z,1003.76
2018-03-25T16:26:07.032Z,1003.75
2018-03-25T16:27:07.002Z,1003.74
2018-03-25T16:28:07.235Z,1003.78
2018-03-25T16:29:06.994Z,1003.74
2018-03-25T16:30:06.921Z,1003.79
2018-03-25T16:31:06.899Z,1003.79
2018-03-25T16:32:06.878Z,1003.81
2018-03-25T16:33:06.846Z,1003.82
2018-03-25T16:34:06.814Z,1003.79
2018-03-25T16:35:06.811Z,1003.81
2018-03-25T16:36:06.764Z,1003.81
2018-03-25T16:37:06.743Z,1003.84
2018-03-25T16:38:06.703Z,1003.88
2018-03-25T16:39:06.678Z,1003.85
2018-03-25T16:40:06.652Z,1003.88
2018-03-25T16:41:06.628Z,1003.83
2018-03-25T16:42:06.691Z,1003.89
2018-03-25T16:43:06.580Z,1003.88
2018-03-25T16:44:06.548Z,1003.88
2018-03-25T16:45:06.519Z,1003.90
2018-03-25T16:46:06.505Z,1003.87
2018-03-25T16:47:06.474Z,1003.90
2018-03-25T16:48:06.460Z,1003.91
2018-03-25T16:49:06.473Z,1003.91
2018-03-25T16:50:06.394Z,1003.92
2018-03-25T16:51:06.372Z,1003.91
2018-03-25T16:52:06.360Z,1003.96
2018-03-25T16:53:06.383Z,1004.02
2018-03-25T16:54:06.518Z,1004.00
2018-03-25T16:55:06.570Z,1004.03
2018-03-25T16:56:06.245Z,1004.08
2018-03-25T16:57:06.336Z,1004.12
2018-03-25T16:58:06.176Z,1004.10
2018-03-25T16:59:06.375Z,1004.10
2018-03-25T17:00:06.226Z,1004.10
2018-03-25T17:01:06.397Z,1004.11
2018-03-25T17:02:06.066Z,1004.12
2018-03-25T17:03:06.500Z,1004.15
2018-03-25T17:04:06.152Z,1004.10
2018-03-25T17:05:08.076Z,1004.13
2018-03-25T17:06:06.773Z,1004.13
2018-03-25T17:07:06.152Z,1004.15
2018-03-25T17:08:06.451Z,1004.16
2018-03-25T17:09:06.077Z,1004.12
2018-03-25T17:10:05.905Z,1004.15
2018-03-25T17:11:05.838Z,1004.15
2018-03-25T17:12:06.680Z,1004.14
2018-03-25T17:13:05.789Z,1004.18
2018-03-25T17:14:05.772Z,1004.21
2018-03-25T17:15:06.679Z,1004.23
2018-03-25T17:16:05.733Z,1004.21
2018-03-25T17:17:08.707Z,1004.23
2018-03-25T17:19:49.003Z,1004.32
2018-03-25T17:20:44.610Z,1004.24
2018-03-25T17:22:48.871Z,1004.33
2018-03-25T17:23:48.906Z,1004.33
2018-03-25T17:25:50.795Z,1004.33
2018-03-25T17:26:48.725Z,1004.38
2018-03-25T17:27:48.028Z,1004.34
2018-03-25T17:28:48.505Z,1004.42
2018-03-25T17:29:49.562Z,1004.40
2018-03-25T17:30:49.565Z,1004.39
2018-03-25T17:31:48.328Z,1004.42
2018-03-25T17:32:48.278Z,1004.44
2018-03-25T17:33:49.380Z,1004.44
2018-03-25T17:34:49.860Z,1004.43
2018-03-25T17:37:55.352Z,1004.46
2018-03-25T17:38:54.803Z,1004.44
2018-03-25T17:39:56.400Z,1004.46
2018-03-25T17:40:54.052Z,1004.50
2018-03-25T17:41:56.663Z,1004.51
2018-03-25T17:42:54.608Z,1004.48
2018-03-25T17:43:59.021Z,1004.48
2018-03-25T17:44:54.091Z,1004.53
2018-03-25T17:45:59.422Z,1004.54
2018-03-25T17:48:29.904Z,1004.61
2018-03-25T17:51:42.619Z,1004.61
2018-03-25T17:52:42.858Z,1004.61
2018-03-25T17:53:40.873Z,1004.66
2018-03-25T17:54:41.854Z,1004.68
2018-03-25T17:55:43.139Z,1004.71
2018-03-25T17:56:42.163Z,1004.70
2018-03-25T17:57:44.061Z,1004.70
2018-03-25T18:00:29.710Z,1004.80
2018-03-25T18:04:49.696Z,1004.84
2018-03-25T18:07:48.380Z,1004.86
2018-03-25T18:08:49.078Z,1004.86
2018-03-25T18:11:05.787Z,1004.92
2018-03-25T18:13:52.484Z,1004.90
2018-03-25T18:14:51.099Z,1004.91
2018-03-25T18:18:39.586Z,1004.96
2018-03-25T18:19:39.149Z,1004.94
2018-03-25T18:21:36.947Z,1004.99
2018-03-25T18:22:37.289Z,1004.97
2018-03-25T18:23:37.877Z,1005.00
2018-03-25T18:24:38.332Z,1005.00
2018-03-25T18:25:37.594Z,1005.03
2018-03-25T18:26:39.633Z,1005.00
2018-03-25T18:27:38.585Z,1005.03
2018-03-25T18:28:37.988Z,1005.08
2018-03-25T18:29:36.728Z,1005.08
2018-03-25T18:31:36.369Z,1005.09
2018-03-25T18:32:43.549Z,1005.12
2018-03-25T18:35:34.018Z,1005.19
2018-03-25T18:36:30.296Z,1005.18
2018-03-25T18:37:32.019Z,1005.19
2018-03-25T18:38:28.939Z,1005.21
2018-03-25T18:43:25.545Z,1005.24
2018-03-25T18:45:35.888Z,1005.31
